Time;durP1;ratioP1;P1;durP2;ratioP2;P2;SDS_P1;SDS_P2;PMS_P1;PMS_P2;Temp;Humidity;BMP_temperature;BMP_pressure;BME280_temperature;BME280_humidity;BME280_pressure;Samples;Min_cycle;Max_cycle;Signal;HPM_P1;HPM_P2
2020/12/06 00:02:33;;;;;;;24.32;13.08;;;;;;;19.08;50.50;99737.03;2381016;74;51495;-76
2020/12/06 00:05:36;;;;;;;21.93;12.37;;;;;;;19.07;50.54;99730.03;2351551;75;51530;-76
2020/12/06 00:08:38;;;;;;;25.65;12.63;;;;;;;19.06;50.50;99729.70;2362532;74;50316;-76
2020/12/06 00:11:40;;;;;;;22.58;12.35;;;;;;;19.06;50.46;99734.58;2381792;74;51486;-76
2020/12/06 00:14:43;;;;;;;25.85;12.65;;;;;;;19.03;50.49;99730.12;2360194;74;50340;-76
2020/12/06 00:17:45;;;;;;;21.33;12.68;;;;;;;19.04;50.43;99721.08;2351449;75;50369;-76
2020/12/06 00:20:47;;;;;;;25.23;12.85;;;;;;;19.02;50.49;99726.63;2356291;74;50729;-76
2020/12/06 00:23:49;;;;;;;25.52;12.98;;;;;;;19.04;50.36;99718.39;2381468;74;51444;-76
2020/12/06 00:26:53;;;;;;;23.67;12.73;;;;;;;19.00;50.50;99716.63;2366792;74;51465;-76
2020/12/06 00:29:55;;;;;;;21.85;12.78;;;;;;;19.00;50.46;99715.28;2351330;75;50724;-76
2020/12/06 00:32:57;;;;;;;26.25;13.32;;;;;;;18.98;50.48;99711.17;2376216;74;50640;-76
2020/12/06 00:35:59;;;;;;;26.33;13.05;;;;;;;18.96;50.53;99707.38;2379077;74;51389;-76
2020/12/06 00:39:01;;;;;;;25.60;12.73;;;;;;;18.96;50.47;99696.65;2359729;75;50228;-76
2020/12/06 00:42:03;;;;;;;20.65;12.98;;;;;;;18.94;50.53;99697.37;2371072;74;50290;-76
2020/12/06 00:45:06;;;;;;;22.17;12.55;;;;;;;18.96;50.41;99694.46;2380016;74;50644;-76
2020/12/06 00:48:08;;;;;;;21.33;12.50;;;;;;;18.93;50.51;99684.48;2393116;74;51443;-76
2020/12/06 00:51:12;;;;;;;22.37;13.03;;;;;;;18.92;50.57;99693.54;2396148;74;51478;-76
2020/12/06 00:54:14;;;;;;;22.17;12.73;;;;;;;18.91;50.50;99680.36;2360096;75;50337;-76
2020/12/06 00:57:16;;;;;;;21.45;13.10;;;;;;;18.90;50.56;99667.45;2360526;74;51469;-76
2020/12/06 01:00:18;;;;;;;19.57;12.85;;;;;;;18.90;50.47;99670.14;2360175;75;51592;-76
2020/12/06 01:03:21;;;;;;;20.70;12.50;;;;;;;18.89;50.50;99659.12;2359827;74;51451;-76
2020/12/06 01:06:23;;;;;;;21.33;12.50;;;;;;;18.88;50.58;99654.80;2373567;74;51470;-76
2020/12/06 01:09:25;;;;;;;22.67;13.10;;;;;;;18.88;50.47;99650.78;2379788;74;51474;-76
2020/12/06 01:12:27;;;;;;;20.35;13.13;;;;;;;18.87;50.55;99657.68;2359578;75;51577;-76
2020/12/06 01:15:30;;;;;;;20.12;12.47;;;;;;;18.88;50.60;99658.83;2364816;74;51609;-76
2020/12/06 01:18:32;;;;;;;21.12;13.00;;;;;;;18.85;50.58;99661.90;2359895;75;50340;-76
2020/12/06 01:21:34;;;;;;;20.48;12.47;;;;;;;18.85;50.55;99652.52;2383577;74;50383;-76
2020/12/06 01:24:36;;;;;;;22.73;12.73;;;;;;;18.84;50.69;99659.45;2380205;74;51489;-76
2020/12/06 01:27:38;;;;;;;22.27;13.05;;;;;;;18.83;50.58;99659.97;2359738;75;51623;-76
2020/12/06 01:30:41;;;;;;;21.37;12.85;;;;;;;18.82;50.70;99652.94;2382417;74;51463;-76
2020/12/06 01:33:43;;;;;;;21.60;12.93;;;;;;;18.82;50.65;99646.77;2400996;74;50304;-76
2020/12/06 01:36:45;;;;;;;21.48;12.85;;;;;;;18.81;50.62;99630.39;2364040;74;50213;-76
2020/12/06 01:39:47;;;;;;;25.15;12.47;;;;;;;18.79;50.62;99630.58;2361109;74;50688;-76
2020/12/06 01:42:49;;;;;;;20.50;12.68;;;;;;;18.78;50.72;99622.25;2359610;75;50665;-76
2020/12/06 01:45:51;;;;;;;20.15;12.40;;;;;;;18.76;50.65;99628.33;2360352;74;51465;-76
2020/12/06 01:48:54;;;;;;;17.52;11.78;;;;;;;18.76;50.69;99624.30;2359888;75;50276;-76
2020/12/06 01:51:58;;;;;;;21.75;12.33;;;;;;;18.77;50.61;99629.14;2383147;74;51450;-76
2020/12/06 01:55:00;;;;;;;19.10;12.45;;;;;;;18.74;50.68;99618.30;2380809;74;51591;-76
2020/12/06 01:58:09;;;;;;;20.80;11.75;;;;;;;18.74;50.57;99611.59;2360008;75;50404;-76
2020/12/06 02:01:12;;;;;;;18.60;11.73;;;;;;;18.72;50.71;99602.41;2375255;74;51724;-76
2020/12/06 02:04:14;;;;;;;19.10;12.70;;;;;;;18.72;50.66;99597.58;2386156;74;50396;-76
2020/12/06 02:07:16;;;;;;;22.42;12.82;;;;;;;18.69;50.83;99601.50;2332936;75;50353;-76
2020/12/06 02:10:18;;;;;;;20.23;11.95;;;;;;;18.70;50.75;99596.95;2360748;74;50600;-76
2020/12/06 02:13:23;;;;;;;17.75;11.83;;;;;;;18.70;50.69;99600.48;2367658;74;51489;-76
2020/12/06 02:16:26;;;;;;;18.12;12.07;;;;;;;18.71;50.66;99595.94;2368617;74;50726;-76
2020/12/06 02:19:28;;;;;;;19.77;12.73;;;;;;;18.71;50.62;99590.06;2360856;74;50716;-77
2020/12/06 02:22:30;;;;;;;19.48;11.95;;;;;;;18.68;50.75;99583.78;2360205;75;51490;-77
2020/12/06 02:25:38;;;;;;;22.20;12.55;;;;;;;18.68;50.65;99574.93;2360783;74;51453;-77
2020/12/06 02:28:41;;;;;;;18.17;11.70;;;;;;;18.68;50.70;99565.55;2368598;74;50611;-77
2020/12/06 02:31:43;;;;;;;19.70;11.93;;;;;;;18.66;50.67;99585.03;2386706;74;51510;-77
2020/12/06 02:34:45;;;;;;;20.48;12.13;;;;;;;18.65;50.76;99578.00;2369610;74;50717;-77
2020/12/06 02:37:48;;;;;;;18.85;11.88;;;;;;;18.65;50.67;99583.36;2350315;75;51501;-77
2020/12/06 02:40:50;;;;;;;20.80;11.93;;;;;;;18.65;50.71;99584.70;2373825;75;50459;-77
2020/12/06 02:43:52;;;;;;;19.57;12.60;;;;;;;18.64;50.71;99583.06;2363210;74;50305;-76
2020/12/06 02:46:54;;;;;;;19.25;12.07;;;;;;;18.63;50.72;99577.41;2345343;74;50579;-76
2020/12/06 02:49:56;;;;;;;17.77;11.75;;;;;;;18.62;50.72;99575.23;2362070;75;50678;-76
2020/12/06 02:52:59;;;;;;;17.50;11.43;;;;;;;18.62;50.72;99575.75;2373738;75;51477;-77
2020/12/06 02:56:01;;;;;;;18.87;11.53;;;;;;;18.62;50.68;99573.07;2373035;75;50403;-76
2020/12/06 02:59:03;;;;;;;14.98;11.50;;;;;;;18.60;50.69;99567.09;2363736;75;50267;-77
2020/12/06 03:02:05;;;;;;;18.15;11.65;;;;;;;18.60;50.63;99567.09;2353402;74;50666;-77
2020/12/06 03:05:07;;;;;;;19.80;11.63;;;;;;;18.58;50.78;99558.47;2373508;74;51471;-77
2020/12/06 03:08:10;;;;;;;18.17;11.80;;;;;;;18.58;50.72;99555.78;2348157;73;51486;-76
2020/12/06 03:11:12;;;;;;;17.23;11.65;;;;;;;18.57;50.77;99544.74;2341574;75;51537;-77
2020/12/06 03:14:14;;;;;;;18.75;12.15;;;;;;;18.58;50.69;99545.89;2373327;75;50376;-77
2020/12/06 03:17:16;;;;;;;15.45;11.18;;;;;;;18.57;50.59;99543.41;2353527;75;50253;-77
2020/12/06 03:20:18;;;;;;;20.00;11.75;;;;;;;18.56;50.71;99549.81;2373532;75;51576;-77
2020/12/06 03:23:21;;;;;;;19.35;11.90;;;;;;;18.56;50.65;99551.97;2353939;75;50661;-76
2020/12/06 03:26:23;;;;;;;17.85;11.57;;;;;;;18.53;50.71;99549.71;2341389;75;51579;-77
2020/12/06 03:29:25;;;;;;;18.85;11.25;;;;;;;18.53;50.76;99545.69;2339515;76;51486;-77
2020/12/06 03:32:27;;;;;;;15.90;11.08;;;;;;;18.51;50.85;99531.67;2352547;75;51455;-77
2020/12/06 03:35:29;;;;;;;18.27;11.50;;;;;;;18.50;50.80;99524.17;2373421;73;50339;-76
2020/12/06 03:38:32;;;;;;;17.65;11.95;;;;;;;18.53;50.57;99532.30;2355428;74;50311;-77
2020/12/06 03:41:34;;;;;;;15.78;11.55;;;;;;;18.54;50.54;99543.31;2352547;74;50378;-77
2020/12/06 03:44:36;;;;;;;15.58;10.95;;;;;;;18.52;50.68;99540.02;2379159;74;50281;-76
2020/12/06 03:47:38;;;;;;;16.10;10.65;;;;;;;18.52;50.65;99540.53;2352131;74;51506;-77
2020/12/06 03:50:41;;;;;;;16.50;10.90;;;;;;;18.50;50.59;99533.54;2351367;75;50659;-77
2020/12/06 03:53:43;;;;;;;16.70;10.98;;;;;;;18.49;50.70;99530.53;2356318;74;51415;-76
2020/12/06 03:56:45;;;;;;;17.00;11.55;;;;;;;18.49;50.67;99539.91;2351146;74;50339;-77
2020/12/06 03:59:47;;;;;;;16.87;10.68;;;;;;;18.47;50.79;99544.68;2351146;75;50335;-76
2020/12/06 04:02:53;;;;;;;18.60;11.18;;;;;;;18.49;50.72;99541.77;2351359;74;50693;-76
2020/12/06 04:05:55;;;;;;;15.68;10.75;;;;;;;18.48;50.61;99550.86;2351360;75;50347;-77
2020/12/06 04:08:57;;;;;;;15.23;10.65;;;;;;;18.45;50.71;99545.40;2372072;74;50685;-76
2020/12/06 04:12:00;;;;;;;18.12;10.88;;;;;;;18.45;50.70;99540.05;2381414;74;51497;-77
2020/12/06 04:15:02;;;;;;;17.40;10.98;;;;;;;18.47;50.61;99544.68;2374613;74;51441;-77
2020/12/06 04:18:04;;;;;;;14.87;10.53;;;;;;;18.45;50.67;99547.26;2370126;74;51448;-77
2020/12/06 04:21:11;;;;;;;17.57;11.65;;;;;;;18.44;50.70;99545.08;2370027;74;50119;-77
2020/12/06 04:24:12;;;;;;;15.95;10.95;;;;;;;18.42;50.61;99553.86;2352728;75;21950;-77
2020/12/06 04:27:14;;;;;;;15.30;10.55;;;;;;;18.43;50.60;99559.51;2373056;74;50384;-77
2020/12/06 04:30:16;;;;;;;15.72;10.72;;;;;;;18.42;50.71;99548.50;2381001;74;50669;-77
2020/12/06 04:33:18;;;;;;;15.15;10.78;;;;;;;18.40;50.69;99542.52;2381577;74;51505;-77
2020/12/06 04:36:21;;;;;;;17.77;10.72;;;;;;;18.40;50.67;99554.58;2370415;74;52225;-77
2020/12/06 04:39:23;;;;;;;16.85;11.05;;;;;;;18.37;50.73;99546.97;2344539;75;50676;-77
2020/12/06 04:42:25;;;;;;;15.15;10.28;;;;;;;18.37;50.74;99540.27;2339290;76;51541;-77
2020/12/06 04:45:27;;;;;;;14.85;10.38;;;;;;;18.37;50.65;99538.93;2339501;75;51438;-77
2020/12/06 04:48:42;;;;;;;14.98;10.32;;;;;;;18.37;50.66;99528.22;2339388;75;50307;-77
2020/12/06 04:51:44;;;;;;;16.40;10.72;;;;;;;18.37;50.65;99532.23;2277312;77;51532;-77
2020/12/06 04:54:51;;;;;;;15.28;10.70;;;;;;;18.36;50.72;99531.09;2364303;74;50768;-77
2020/12/06 04:57:56;;;;;;;14.98;10.25;;;;;;;18.34;50.73;99519.75;2380673;74;51490;-77
2020/12/06 05:00:58;;;;;;;13.75;9.83;;;;;;;18.33;50.76;99521.62;2378656;74;50183;-77
2020/12/06 05:04:16;;;;;;;14.80;9.88;;;;;;;18.33;50.71;99516.78;2373305;74;50453;-77
2020/12/06 05:07:19;;;;;;;15.93;10.35;;;;;;;18.34;50.63;99517.93;2360895;75;50442;-77
2020/12/06 05:10:21;;;;;;;15.23;10.28;;;;;;;18.32;50.74;99516.48;2343400;75;50811;-77
2020/12/06 05:13:23;;;;;;;16.25;9.93;;;;;;;18.31;50.79;99515.64;2364564;75;51538;-77
2020/12/06 05:16:25;;;;;;;15.60;10.32;;;;;;;18.31;50.73;99518.84;2352457;75;51450;-77
2020/12/06 05:19:28;;;;;;;14.07;9.73;;;;;;;18.34;50.57;99525.96;2373898;74;51446;-77
2020/12/06 05:22:30;;;;;;;16.05;9.73;;;;;;;18.34;50.54;99515.73;2354603;74;50224;-77
2020/12/06 05:25:33;;;;;;;15.32;10.03;;;;;;;18.35;50.62;99516.88;2339863;75;50681;-76
2020/12/06 05:28:35;;;;;;;17.00;10.32;;;;;;;18.36;50.69;99517.70;2370348;75;50247;-77
2020/12/06 05:31:37;;;;;;;17.20;9.95;;;;;;;18.39;50.53;99532.01;2343069;75;50681;-77
2020/12/06 05:34:40;;;;;;;15.53;9.63;;;;;;;18.41;50.52;99529.42;2339655;76;51509;-77
2020/12/06 05:37:43;;;;;;;14.38;9.28;;;;;;;18.40;50.71;99522.44;2362848;74;51509;-76
2020/12/06 05:40:45;;;;;;;12.88;9.18;;;;;;;18.43;50.68;99526.55;2391376;74;51529;-76
2020/12/06 05:43:47;;;;;;;16.23;10.08;;;;;;;18.44;50.86;99522.30;2381020;74;50688;-77
2020/12/06 05:46:50;;;;;;;13.18;9.50;;;;;;;18.45;50.73;99505.74;2356849;74;51463;-77
2020/12/06 05:49:53;;;;;;;15.68;9.83;;;;;;;18.47;50.85;99516.55;2351599;75;50656;-77
2020/12/06 05:52:55;;;;;;;13.80;9.78;;;;;;;18.49;50.76;99510.45;2351617;74;50704;-77
2020/12/06 05:56:15;;;;;;;14.03;9.38;;;;;;;18.50;50.76;99530.86;2351632;75;51424;-77
2020/12/06 05:59:17;;;;;;;14.83;9.60;;;;;;;18.52;50.77;99538.67;2352846;75;51017;-77
2020/12/06 06:02:19;;;;;;;15.55;9.50;;;;;;;18.55;50.63;99532.07;2353620;74;50392;-77
2020/12/06 06:05:22;;;;;;;16.25;8.90;;;;;;;18.68;50.41;99518.66;2352933;75;50105;-77
2020/12/06 06:08:26;;;;;;;11.30;8.18;;;;;;;18.68;50.44;99526.18;2374548;74;50686;-77
2020/12/06 06:11:29;;;;;;;13.13;8.83;;;;;;;18.78;50.15;99520.41;2359775;74;50394;-77
2020/12/06 06:14:31;;;;;;;12.88;8.73;;;;;;;18.78;50.12;99523.09;2354074;74;51464;-77
2020/12/06 06:17:33;;;;;;;12.37;8.83;;;;;;;18.81;50.23;99522.66;2353076;75;51542;-77
2020/12/06 06:20:35;;;;;;;13.68;8.90;;;;;;;18.82;50.29;99526.98;2365836;74;50677;-77
2020/12/06 06:23:38;;;;;;;14.47;8.55;;;;;;;18.90;50.18;99531.28;2370130;74;51537;-77
2020/12/06 06:26:42;;;;;;;13.15;8.55;;;;;;;18.96;50.11;99536.30;2357611;74;50386;-77
2020/12/06 06:29:44;;;;;;;15.60;8.78;;;;;;;19.01;49.95;99526.61;2362880;74;50376;-77
2020/12/06 06:32:46;;;;;;;13.55;8.18;;;;;;;19.05;49.94;99526.99;2366130;74;50764;-77
2020/12/06 06:35:48;;;;;;;12.13;7.92;;;;;;;19.07;49.87;99528.95;2355317;74;51533;-78
2020/12/06 06:38:51;;;;;;;10.72;7.65;;;;;;;19.07;49.88;99533.79;2355339;74;51471;-77
2020/12/06 06:42:00;;;;;;;12.30;7.35;;;;;;;19.09;49.87;99534.92;2354612;74;50672;-77
2020/12/06 06:45:10;;;;;;;11.63;7.30;;;;;;;19.13;49.83;99526.74;2374974;74;51517;-77
2020/12/06 06:48:16;;;;;;;13.22;8.63;;;;;;;19.17;49.85;99527.97;2351451;75;51500;-77
2020/12/06 06:51:22;;;;;;;12.30;8.23;;;;;;;19.23;49.77;99523.61;2351581;75;50159;-78
2020/12/06 06:54:31;;;;;;;12.58;7.62;;;;;;;19.25;49.79;99518.33;2351800;75;50699;-77
2020/12/06 06:57:33;;;;;;;12.30;8.05;;;;;;;19.27;49.82;99510.90;2352529;74;51608;-77
2020/12/06 07:00:35;;;;;;;13.35;8.60;;;;;;;19.30;49.79;99513.14;2351862;75;51493;-76
2020/12/06 07:03:41;;;;;;;13.78;8.03;;;;;;;19.31;49.82;99513.44;2351833;75;51488;-77
2020/12/06 07:06:46;;;;;;;;;;;;;;;19.38;49.79;99509.91;2387556;74;52982;-77
2020/12/06 07:09:48;;;;;;;13.10;8.18;;;;;;;19.37;49.84;99513.12;2392637;74;50242;-77
2020/12/06 07:12:51;;;;;;;11.53;7.10;;;;;;;19.40;49.82;99511.34;2359950;74;50123;-77
2020/12/06 07:15:54;;;;;;;12.18;7.58;;;;;;;19.43;49.79;99513.58;2373226;74;51491;-77
2020/12/06 07:18:56;;;;;;;13.85;8.13;;;;;;;19.46;49.75;99505.09;2351644;75;51569;-78
2020/12/06 07:21:58;;;;;;;12.28;7.53;;;;;;;19.46;49.78;99510.46;2360764;74;52478;-78
2020/12/06 07:25:01;;;;;;;17.75;8.43;;;;;;;19.49;49.79;99508.68;2369208;74;50351;-77
2020/12/06 07:28:03;;;;;;;13.75;7.33;;;;;;;19.53;49.70;99509.91;2371011;74;50701;-78
2020/12/06 07:31:05;;;;;;;14.05;7.65;;;;;;;19.59;49.66;99515.73;2363118;74;51841;-77
2020/12/06 07:34:07;;;;;;;14.95;8.18;;;;;;;19.64;49.55;99515.09;2392282;74;51474;-78
2020/12/06 07:37:09;;;;;;;12.40;7.70;;;;;;;19.68;49.47;99498.89;2351471;75;52246;-78
2020/12/06 07:40:12;;;;;;;13.00;7.28;;;;;;;19.69;49.43;99496.50;2347752;75;50423;-77
2020/12/06 07:43:14;;;;;;;14.03;7.00;;;;;;;19.70;49.43;99508.05;2359245;75;50631;-77
2020/12/06 07:46:20;;;;;;;13.18;7.37;;;;;;;19.74;49.29;99514.12;2378091;74;50254;-77
2020/12/06 07:49:22;;;;;;;11.43;7.53;;;;;;;19.76;49.24;99512.56;2367295;74;50350;-77
2020/12/06 07:52:36;;;;;;;13.32;7.00;;;;;;;19.78;49.20;99508.63;2358887;74;50363;-77
2020/12/06 07:55:35;;;;;;;15.20;7.33;;;;;;;19.83;49.09;99516.52;2341367;74;22491;-77
2020/12/06 07:58:41;;;;;;;10.90;7.03;;;;;;;19.84;49.09;99523.03;2367116;74;50915;-77
2020/12/06 08:01:43;;;;;;;11.90;7.20;;;;;;;19.91;48.95;99518.44;2376688;74;50652;-77
2020/12/06 08:04:45;;;;;;;12.78;7.08;;;;;;;19.87;49.09;99519.08;2374731;75;50398;-77
2020/12/06 08:07:48;;;;;;;13.53;6.87;;;;;;;19.89;49.07;99516.48;2352401;74;50385;-77
2020/12/06 08:10:55;;;;;;;10.60;6.30;;;;;;;19.91;49.15;99528.33;2345613;75;51601;-77
2020/12/06 08:13:57;;;;;;;12.47;6.97;;;;;;;19.91;49.21;99520.27;2344971;75;50383;-77
2020/12/06 08:17:00;;;;;;;15.25;6.80;;;;;;;19.94;49.17;99525.23;2339933;75;50584;-78
2020/12/06 08:20:13;;;;;;;13.35;7.00;;;;;;;19.96;49.25;99524.47;2352768;75;51544;-77
2020/12/06 08:23:15;;;;;;;13.38;7.55;;;;;;;19.96;49.38;99514.57;2339469;75;51390;-77
2020/12/06 08:26:18;;;;;;;14.70;7.03;;;;;;;19.99;49.37;99517.34;2340418;74;50722;-77
2020/12/06 08:29:20;;;;;;;16.10;7.08;;;;;;;20.04;49.42;99522.87;2345030;75;50249;-77
2020/12/06 08:32:22;;;;;;;16.17;6.95;;;;;;;20.07;49.46;99513.55;2340047;76;51491;-77
2020/12/06 08:35:46;;;;;;;14.28;6.95;;;;;;;20.05;49.56;99516.45;2344401;74;51471;-77
2020/12/06 08:38:48;;;;;;;15.38;7.00;;;;;;;20.06;49.69;99511.36;2351647;75;51568;-77
2020/12/06 08:41:50;;;;;;;13.98;7.53;;;;;;;20.06;49.84;99510.02;2373717;74;50708;-77
2020/12/06 08:44:54;;;;;;;16.12;6.83;;;;;;;20.09;49.93;99512.29;2366641;75;50150;-77
2020/12/06 08:47:56;;;;;;;13.48;7.53;;;;;;;20.11;49.91;99513.39;2333409;76;50137;-78
2020/12/06 08:50:58;;;;;;;17.67;7.10;;;;;;;20.11;49.94;99519.58;2337209;75;50216;-77
2020/12/06 08:54:03;;;;;;;13.62;6.60;;;;;;;20.15;49.91;99514.08;2339187;75;50581;-78
2020/12/06 08:57:11;;;;;;;12.83;8.00;;;;;;;20.14;49.95;99511.61;2333552;75;50750;-77
2020/12/06 09:00:13;;;;;;;14.15;7.05;;;;;;;20.15;49.97;99504.68;2348643;75;51414;-78
2020/12/06 09:03:16;;;;;;;16.15;7.10;;;;;;;20.16;49.95;99506.31;2354728;75;51466;-77
2020/12/06 09:06:18;;;;;;;18.40;6.95;;;;;;;20.20;49.94;99508.05;2336573;75;51444;-77
2020/12/06 09:09:20;;;;;;;14.85;7.25;;;;;;;20.23;49.88;99508.95;2349609;75;51359;-77
2020/12/06 09:12:22;;;;;;;14.78;6.78;;;;;;;20.26;49.78;99498.28;2332759;76;51417;-77
2020/12/06 09:15:42;;;;;;;12.65;6.58;;;;;;;20.31;49.61;99502.47;2332847;76;50510;-77
2020/12/06 09:18:45;;;;;;;17.70;7.10;;;;;;;20.30;49.63;99492.78;2334015;75;51329;-77
2020/12/06 09:21:47;;;;;;;12.80;7.05;;;;;;;20.36;49.49;99485.97;2347852;75;50262;-76
2020/12/06 09:24:49;;;;;;;14.03;6.65;;;;;;;20.39;49.38;99475.30;2373321;74;50211;-76
2020/12/06 09:27:51;;;;;;;17.20;7.58;;;;;;;20.42;49.34;99479.73;2373309;74;50605;-77
2020/12/06 09:30:53;;;;;;;14.00;6.12;;;;;;;20.41;49.38;99463.28;2373265;75;51458;-76
2020/12/06 09:33:56;;;;;;;14.60;6.97;;;;;;;20.44;49.36;99462.02;2373238;75;52558;-77
2020/12/06 09:36:58;;;;;;;11.38;6.80;;;;;;;20.44;49.36;99451.27;2342638;75;50279;-77
2020/12/06 09:40:00;;;;;;;12.68;6.40;;;;;;;20.44;49.37;99445.90;2357325;75;51457;-78
2020/12/06 09:43:02;;;;;;;13.93;6.37;;;;;;;20.42;49.37;99439.42;2363171;74;51380;-77
2020/12/06 09:46:04;;;;;;;13.32;6.40;;;;;;;20.42;49.42;99446.14;2339796;76;51558;-78
2020/12/06 09:49:07;;;;;;;10.65;5.92;;;;;;;20.45;49.32;99444.34;2340009;75;50346;-77
2020/12/06 09:52:09;;;;;;;17.40;6.30;;;;;;;20.51;49.21;99443.95;2365919;74;50159;-78
2020/12/06 09:55:11;;;;;;;15.03;6.40;;;;;;;20.61;49.11;99446.97;2381581;74;50701;-78
2020/12/06 09:58:13;;;;;;;15.18;6.35;;;;;;;20.64;49.02;99434.41;2381571;74;51454;-78
2020/12/06 10:01:15;;;;;;;14.25;6.45;;;;;;;20.66;48.95;99430.98;2381858;74;51615;-79
2020/12/06 10:04:18;;;;;;;18.00;6.25;;;;;;;20.69;48.87;99443.16;2381657;74;51589;-78
2020/12/06 10:07:21;;;;;;;16.50;6.10;;;;;;;20.70;48.86;99452.84;2370637;74;50309;-79
2020/12/06 10:10:23;;;;;;;11.20;6.05;;;;;;;20.74;48.78;99447.86;2340891;76;51384;-78
2020/12/06 10:13:25;;;;;;;12.05;6.22;;;;;;;20.77;48.67;99444.18;2340585;76;51483;-78
2020/12/06 10:16:27;;;;;;;17.80;5.80;;;;;;;20.79;48.59;99447.47;2340280;76;50332;-79
2020/12/06 10:19:29;;;;;;;16.82;6.20;;;;;;;20.82;48.61;99440.81;2340569;76;50392;-78
2020/12/06 10:22:32;;;;;;;11.70;5.50;;;;;;;20.80;48.65;99438.34;2340065;76;50624;-78
2020/12/06 10:25:34;;;;;;;12.30;6.08;;;;;;;20.88;48.51;99445.27;2339902;76;52162;-77
2020/12/06 10:28:36;;;;;;;9.90;5.37;;;;;;;20.85;48.49;99440.36;2362309;75;51570;-77
2020/12/06 10:31:38;;;;;;;14.23;5.83;;;;;;;20.76;48.68;99437.17;2339711;76;51423;-77
2020/12/06 10:34:40;;;;;;;14.63;6.37;;;;;;;20.74;48.72;99449.20;2339611;76;50646;-77
2020/12/06 10:37:42;;;;;;;12.18;5.50;;;;;;;20.68;48.82;99452.27;2339505;76;50344;-77
2020/12/06 10:40:45;;;;;;;10.90;5.92;;;;;;;20.66;48.73;99444.42;2339873;76;50316;-78
2020/12/06 10:43:47;;;;;;;11.10;5.70;;;;;;;20.68;48.65;99448.73;2339691;76;50647;-77
2020/12/06 10:46:49;;;;;;;13.75;5.80;;;;;;;20.65;48.67;99453.55;2358734;75;51565;-79
2020/12/06 10:49:51;;;;;;;12.88;6.20;;;;;;;20.64;48.69;99443.83;2373863;75;50777;-78
2020/12/06 10:52:53;;;;;;;15.13;6.08;;;;;;;20.64;48.74;99441.14;2344122;74;51454;-79
2020/12/06 10:55:56;;;;;;;15.55;5.97;;;;;;;20.71;48.68;99438.91;2340625;76;51596;-79
2020/12/06 10:58:58;;;;;;;15.53;5.53;;;;;;;20.72;48.75;99445.91;2340389;75;50808;-80
2020/12/06 11:02:00;;;;;;;14.45;6.00;;;;;;;20.72;48.79;99428.44;2340348;76;52370;-80
2020/12/06 11:05:03;;;;;;;13.00;6.37;;;;;;;20.72;48.90;99440.53;2340541;75;51563;-80
2020/12/06 11:08:05;;;;;;;9.83;5.15;;;;;;;20.79;48.79;99433.21;2361413;75;51423;-80
2020/12/06 11:11:08;;;;;;;12.68;5.87;;;;;;;20.78;48.85;99428.86;2374361;75;50143;-79
2020/12/06 11:14:10;;;;;;;11.83;5.90;;;;;;;20.76;49.00;99425.61;2374413;75;51524;-81
2020/12/06 11:17:12;;;;;;;12.98;6.40;;;;;;;20.79;48.98;99425.15;2342947;74;51444;-76
2020/12/06 11:20:15;;;;;;;14.75;6.28;;;;;;;20.85;48.99;99433.63;2339678;76;51463;-78
2020/12/06 11:23:17;;;;;;;22.35;7.00;;;;;;;20.94;49.09;99435.50;2339540;75;50327;-75
2020/12/06 11:26:19;;;;;;;22.07;6.58;;;;;;;20.90;49.45;99429.73;2339486;76;50390;-72
2020/12/06 11:29:21;;;;;;;33.10;6.47;;;;;;;20.90;49.86;99420.86;2336015;76;50264;-72
2020/12/06 11:32:25;;;;;;;19.48;7.03;;;;;;;20.88;49.96;99428.64;2315840;76;50153;-74
2020/12/06 11:35:27;;;;;;;22.50;6.97;;;;;;;20.77;50.51;99416.48;2333185;75;51502;-75
2020/12/06 11:38:30;;;;;;;29.20;6.75;;;;;;;20.76;50.89;99417.55;2364888;75;50440;-74
2020/12/06 11:41:32;;;;;;;21.77;6.15;;;;;;;20.81;50.53;99416.34;2373332;74;51576;-74
2020/12/06 11:44:34;;;;;;;19.67;6.75;;;;;;;20.90;50.32;99414.95;2373071;74;49852;-74
2020/12/06 11:47:36;;;;;;;15.72;6.12;;;;;;;20.84;50.36;99414.53;2384506;74;50344;-74
2020/12/06 11:50:38;;;;;;;17.35;6.42;;;;;;;20.79;50.53;99418.42;2301273;76;50659;-74
2020/12/06 11:53:41;;;;;;;16.02;6.30;;;;;;;20.78;50.47;99414.08;2356554;75;51479;-74
2020/12/06 11:56:49;;;;;;;19.75;6.37;;;;;;;20.76;50.40;99413.51;2357050;74;50366;-76
2020/12/06 11:59:51;;;;;;;14.80;6.30;;;;;;;20.76;50.27;99409.48;2356112;75;50401;-76
2020/12/06 12:02:53;;;;;;;17.50;6.45;;;;;;;20.78;50.12;99401.98;2293184;77;50667;-75
2020/12/06 12:05:55;;;;;;;19.10;6.47;;;;;;;20.76;50.16;99390.66;2292551;77;51666;-75
2020/12/06 12:08:57;;;;;;;15.35;5.78;;;;;;;20.76;50.08;99393.34;2262495;77;51499;-77
2020/12/06 12:12:00;;;;;;;22.95;7.08;;;;;;;20.66;50.32;99398.73;2356041;75;51469;-77
2020/12/06 12:15:04;;;;;;;16.17;6.53;;;;;;;20.69;50.32;99399.33;2293295;77;50211;-76
2020/12/06 12:18:06;;;;;;;19.27;6.60;;;;;;;20.69;50.34;99398.80;2367779;74;51529;-76
2020/12/06 12:21:09;;;;;;;15.32;5.45;;;;;;;20.71;50.42;99398.59;2337366;76;51499;-77
2020/12/06 12:24:11;;;;;;;16.70;5.85;;;;;;;20.70;50.50;99389.67;2319269;76;50319;-76
2020/12/06 12:27:13;;;;;;;12.35;4.95;;;;;;;20.73;50.58;99382.53;2359200;74;50400;-77
2020/12/06 12:30:15;;;;;;;14.30;6.80;;;;;;;20.71;50.74;99366.33;2356137;74;50605;-76
2020/12/06 12:33:17;;;;;;;14.00;5.72;;;;;;;20.69;50.90;99366.55;2263268;77;51382;-77
2020/12/06 12:36:19;;;;;;;12.82;6.15;;;;;;;20.68;51.08;99358.70;2293140;77;51460;-76
2020/12/06 12:39:22;;;;;;;11.45;5.17;;;;;;;20.64;51.13;99356.47;2293222;77;51479;-77
2020/12/06 12:42:24;;;;;;;16.97;5.78;;;;;;;20.68;51.05;99359.55;2292255;77;49838;-76
2020/12/06 12:45:26;;;;;;;30.35;5.87;;;;;;;20.68;51.02;99353.33;2262164;77;50350;-73
2020/12/06 12:48:28;;;;;;;17.50;5.47;;;;;;;20.72;51.12;99355.86;2356172;75;50606;-76
2020/12/06 12:51:30;;;;;;;22.60;6.67;;;;;;;20.65;51.32;99344.69;2356806;74;51444;-76
2020/12/06 12:54:33;;;;;;;25.72;6.20;;;;;;;20.66;51.29;99348.19;2257138;77;51542;-75
2020/12/06 12:57:35;;;;;;;32.42;6.55;;;;;;;20.67;51.27;99339.07;2356229;75;50758;-74
2020/12/06 13:00:38;;;;;;;19.75;6.00;;;;;;;20.66;51.38;99336.91;2356281;75;51490;-75
2020/12/06 13:03:40;;;;;;;20.40;5.72;;;;;;;20.67;51.40;99348.48;2362548;74;51514;-77
2020/12/06 13:06:42;;;;;;;12.43;5.87;;;;;;;20.63;51.46;99342.75;2372332;74;51512;-76
2020/12/06 13:09:44;;;;;;;15.93;5.60;;;;;;;20.60;51.45;99342.37;2383962;74;50558;-77
2020/12/06 13:12:49;;;;;;;21.87;6.00;;;;;;;20.62;51.30;99342.44;2294001;77;50335;-77
2020/12/06 13:15:50;;;;;;;11.55;5.53;;;;;;;20.61;51.20;99343.50;2398140;74;22402;-77
2020/12/06 13:18:53;;;;;;;12.80;5.78;;;;;;;20.62;51.09;99340.28;2398101;74;51475;-77
2020/12/06 13:21:55;;;;;;;14.93;6.00;;;;;;;20.71;50.85;99340.80;2369644;74;50341;-77
2020/12/06 13:24:58;;;;;;;13.95;6.33;;;;;;;20.69;50.86;99343.70;2374899;74;50318;-76
2020/12/06 13:28:00;;;;;;;14.60;5.28;;;;;;;20.64;51.38;99355.66;2314892;76;50642;-76
2020/12/06 13:31:02;;;;;;;16.15;5.83;;;;;;;20.60;51.76;99359.34;2396467;74;51486;-76
2020/12/06 13:34:04;;;;;;;17.45;5.50;;;;;;;20.62;51.77;99341.09;2397257;74;51581;-75
2020/12/06 13:37:07;;;;;;;13.05;5.30;;;;;;;20.66;51.79;99332.88;2294350;76;51562;-76
2020/12/06 13:40:10;;;;;;;14.38;5.12;;;;;;;20.72;51.72;99334.36;2356401;74;51589;-76
2020/12/06 13:43:12;;;;;;;10.82;5.72;;;;;;;20.69;51.77;99337.51;2292867;76;52508;-76
2020/12/06 13:46:14;;;;;;;14.40;5.65;;;;;;;20.65;51.81;99337.13;2268152;77;51546;-76
2020/12/06 13:49:16;;;;;;;12.65;6.00;;;;;;;20.58;51.88;99335.89;2360180;75;50429;-75
2020/12/06 13:52:18;;;;;;;17.85;5.97;;;;;;;20.54;51.98;99331.17;2386328;74;50345;-76
2020/12/06 13:55:20;;;;;;;13.45;5.47;;;;;;;20.48;52.08;99338.28;2323453;76;50682;-78
2020/12/06 13:58:23;;;;;;;7.12;4.83;;;;;;;20.51;52.04;99343.19;2364598;74;51556;-77
2020/12/06 14:01:25;;;;;;;9.98;5.20;;;;;;;20.52;52.07;99352.06;2359231;74;50618;-76
2020/12/06 14:04:27;;;;;;;9.63;5.58;;;;;;;20.54;52.03;99353.51;2356677;74;51556;-77
2020/12/06 14:07:32;;;;;;;8.90;4.80;;;;;;;20.58;51.87;99346.64;2356760;74;51686;-76